createdAt,value
2018-12-17T00:01:04.627Z,97.88
2018-12-17T00:03:32.777Z,101.30
2018-12-17T00:06:01.035Z,108.75
2018-12-17T00:08:32.056Z,107.43
2018-12-17T00:10:59.571Z,112.92
2018-12-17T00:13:27.673Z,126.90
2018-12-17T00:15:55.776Z,101.95
2018-12-17T00:18:24.001Z,119.20
2018-12-17T00:20:52.128Z,121.17
2018-12-17T00:23:20.224Z,110.68
2018-12-17T00:25:48.404Z,124.20
2018-12-17T00:28:16.607Z,123.92
2018-12-17T00:30:44.816Z,117.93
2018-12-17T00:33:13.067Z,118.67
2018-12-17T00:35:41.262Z,120.92
2018-12-17T00:38:09.448Z,121.15
2018-12-17T00:40:37.655Z,117.87
2018-12-17T00:43:05.932Z,115.00
2018-12-17T00:45:34.105Z,115.72
2018-12-17T00:48:02.302Z,124.47
2018-12-17T00:50:30.539Z,126.40
2018-12-17T00:52:58.676Z,132.00
2018-12-17T00:55:26.855Z,116.60
2018-12-17T00:57:55.052Z,127.40
2018-12-17T01:00:23.224Z,128.15
2018-12-17T01:02:51.365Z,126.40
2018-12-17T01:05:19.504Z,116.88
2018-12-17T01:07:47.705Z,115.70
2018-12-17T01:10:15.868Z,108.70
2018-12-17T01:12:44.067Z,120.65
2018-12-17T01:15:12.151Z,115.97
2018-12-17T01:17:40.332Z,115.95
2018-12-17T01:20:08.524Z,114.82
2018-12-17T01:22:36.713Z,112.95
2018-12-17T01:25:04.966Z,105.52
2018-12-17T01:27:33.085Z,119.20
2018-12-17T01:30:01.276Z,106.17
2018-12-17T01:32:29.456Z,105.85
2018-12-17T01:34:57.644Z,112.08
2018-12-17T01:37:25.820Z,99.60
2018-12-17T01:39:53.915Z,109.15
2018-12-17T01:42:22.108Z,108.32
2018-12-17T01:44:50.292Z,109.17
2018-12-17T01:47:18.476Z,112.55
2018-12-17T01:49:46.660Z,106.43
2018-12-17T01:52:14.839Z,107.55
2018-12-17T01:54:42.925Z,97.75
2018-12-17T01:57:11.007Z,107.70
2018-12-17T01:59:39.104Z,112.92
2018-12-17T02:02:07.285Z,103.90
2018-12-17T02:04:35.549Z,93.82
2018-12-17T02:07:03.652Z,102.90
2018-12-17T02:09:31.746Z,104.63
2018-12-17T02:11:59.919Z,98.47
2018-12-17T02:14:28.087Z,97.70
2018-12-17T02:16:56.296Z,105.87
2018-12-17T02:19:24.390Z,91.57
2018-12-17T02:21:52.578Z,108.03
2018-12-17T02:24:20.786Z,118.10
2018-12-17T02:26:48.957Z,111.32
2018-12-17T02:29:17.154Z,105.30
2018-12-17T02:31:45.331Z,107.40
2018-12-17T02:34:13.511Z,96.42
2018-12-17T02:36:41.698Z,100.27
2018-12-17T02:39:09.894Z,91.12
2018-12-17T02:41:38.075Z,100.27
2018-12-17T02:44:06.547Z,94.15
2018-12-17T02:46:34.660Z,104.95
2018-12-17T02:49:02.862Z,102.17
2018-12-17T02:51:31.104Z,91.47
2018-12-17T02:53:59.217Z,93.37
2018-12-17T02:56:27.399Z,98.35
2018-12-17T02:58:55.601Z,86.87
2018-12-17T03:01:23.769Z,97.75
2018-12-17T03:03:51.960Z,96.02
2018-12-17T03:06:20.158Z,96.70
2018-12-17T03:08:48.348Z,94.17
2018-12-17T03:11:16.537Z,99.35
2018-12-17T03:13:44.700Z,94.32
2018-12-17T03:16:12.804Z,105.03
2018-12-17T03:18:40.979Z,99.47
2018-12-17T03:21:09.171Z,96.47
2018-12-17T03:23:37.454Z,96.20
2018-12-17T03:26:05.577Z,90.17
2018-12-17T03:28:33.721Z,97.47
2018-12-17T03:31:01.817Z,95.72
2018-12-17T03:33:30.007Z,102.32
2018-12-17T03:35:58.195Z,102.82
2018-12-17T03:38:26.368Z,100.45
2018-12-17T03:40:54.659Z,94.45
2018-12-17T03:43:22.853Z,106.75
2018-12-17T03:45:51.043Z,106.10
2018-12-17T03:48:19.225Z,105.67
2018-12-17T03:50:47.418Z,111.70
2018-12-17T03:53:15.593Z,104.65
2018-12-17T03:55:43.792Z,100.27
2018-12-17T03:58:11.964Z,96.87
2018-12-17T04:00:40.063Z,98.07
2018-12-17T04:03:08.246Z,102.05
2018-12-17T04:05:36.456Z,106.87
2018-12-17T04:08:04.719Z,93.42
2018-12-17T04:10:32.996Z,99.90
2018-12-17T04:13:01.091Z,99.42
2018-12-17T04:15:29.277Z,117.77
2018-12-17T04:17:57.361Z,99.17
2018-12-17T04:20:25.572Z,106.03
2018-12-17T04:22:53.736Z,100.58
2018-12-17T04:25:21.928Z,96.02
2018-12-17T04:27:50.119Z,103.25
2018-12-17T04:30:18.301Z,103.53
2018-12-17T04:32:47.411Z,101.80
2018-12-17T04:35:15.588Z,108.57
2018-12-17T04:37:43.780Z,93.50
2018-12-17T04:40:11.964Z,90.00
2018-12-17T04:42:40.056Z,84.17
2018-12-17T04:45:08.236Z,94.72
2018-12-17T04:47:36.439Z,92.45
2018-12-17T04:50:04.713Z,93.27
2018-12-17T04:52:32.808Z,114.72
2018-12-17T04:55:00.987Z,113.62
2018-12-17T04:57:29.079Z,108.72
2018-12-17T04:59:57.279Z,116.03
2018-12-17T05:02:25.928Z,121.82
2018-12-17T05:04:54.160Z,112.15
2018-12-17T05:07:22.345Z,96.85
2018-12-17T05:09:50.525Z,122.80
2018-12-17T05:12:18.724Z,131.05
2018-12-17T05:14:46.891Z,130.67
2018-12-17T05:17:14.988Z,139.92
2018-12-17T05:19:43.068Z,159.70
2018-12-17T05:22:11.258Z,147.00
2018-12-17T05:24:39.435Z,142.98
2018-12-17T05:27:07.616Z,144.68
2018-12-17T05:29:35.816Z,146.60
2018-12-17T05:32:03.993Z,151.97
2018-12-17T05:34:32.189Z,151.05
2018-12-17T05:37:00.365Z,142.82
2018-12-17T05:39:28.565Z,144.70
2018-12-17T05:41:56.741Z,159.93
2018-12-17T05:44:24.944Z,148.85
2018-12-17T05:46:53.116Z,143.95
2018-12-17T05:49:21.309Z,146.22
2018-12-17T05:51:49.485Z,146.43
2018-12-17T05:54:17.584Z,146.55
2018-12-17T05:56:45.761Z,138.12
2018-12-17T05:59:14.144Z,151.18
2018-12-17T06:01:42.245Z,154.97
2018-12-17T06:04:10.432Z,158.72
2018-12-17T06:06:38.608Z,153.72
2018-12-17T06:09:10.052Z,156.47
2018-12-17T06:11:38.532Z,159.32
2018-12-17T06:14:06.625Z,160.80
2018-12-17T06:16:34.721Z,177.40
2018-12-17T06:19:02.935Z,149.47
2018-12-17T06:21:31.116Z,153.18
2018-12-17T06:23:59.316Z,147.80
2018-12-17T06:26:27.484Z,154.40
2018-12-17T06:28:55.684Z,147.85
2018-12-17T06:31:23.864Z,141.05
2018-12-17T06:33:52.072Z,139.82
2018-12-17T06:36:20.240Z,154.82
2018-12-17T06:38:48.419Z,163.32
2018-12-17T06:41:16.616Z,158.75
2018-12-17T06:43:44.808Z,153.50
2018-12-17T06:46:12.987Z,144.62
2018-12-17T06:48:41.165Z,153.18
2018-12-17T06:51:09.259Z,149.47
2018-12-17T06:53:37.442Z,145.95
2018-12-17T06:56:05.638Z,160.60
2018-12-17T06:58:33.888Z,140.30
2018-12-17T07:01:02.012Z,139.57
2018-12-17T07:03:30.197Z,132.10
2018-12-17T07:05:58.437Z,135.37
2018-12-17T07:08:26.565Z,144.50
2018-12-17T07:10:54.764Z,146.50
2018-12-17T07:13:22.936Z,143.72
2018-12-17T07:15:51.139Z,148.28
2018-12-17T07:18:19.317Z,142.77
2018-12-17T07:20:47.403Z,145.57
2018-12-17T07:23:15.579Z,152.65
2018-12-17T07:25:43.776Z,146.95
2018-12-17T07:28:11.956Z,143.95
2018-12-17T07:30:40.148Z,138.95
2018-12-17T07:33:08.320Z,143.40
2018-12-17T07:35:36.529Z,141.45
2018-12-17T07:38:04.711Z,142.30
2018-12-17T07:40:32.908Z,135.22
2018-12-17T07:43:01.087Z,132.05
2018-12-17T07:45:29.283Z,121.95
2018-12-17T07:47:57.455Z,136.47
2018-12-17T07:50:25.636Z,138.07
2018-12-17T07:52:53.839Z,138.43
2018-12-17T07:55:22.014Z,135.78
2018-12-17T07:57:50.204Z,134.37
2018-12-17T08:00:18.380Z,138.95
2018-12-17T08:02:46.468Z,135.32
2018-12-17T08:05:14.677Z,138.70
2018-12-17T08:07:44.213Z,128.47
2018-12-17T08:10:12.585Z,126.70
2018-12-17T08:12:40.759Z,103.97
2018-12-17T08:15:08.952Z,109.83
2018-12-17T08:17:37.044Z,98.17
2018-12-17T08:20:05.550Z,80.72
2018-12-17T08:22:33.790Z,84.00
2018-12-17T08:25:02.306Z,75.42
2018-12-17T08:27:30.489Z,62.25
2018-12-17T08:30:03.915Z,94.05
2018-12-17T08:32:28.820Z,82.53
2018-12-17T08:34:56.994Z,59.60
2018-12-17T08:37:25.194Z,57.15
2018-12-17T08:39:53.368Z,60.80
2018-12-17T08:42:21.559Z,61.45
2018-12-17T08:44:49.743Z,57.75
2018-12-17T08:47:17.939Z,55.78
2018-12-17T08:49:46.122Z,51.08
2018-12-17T08:52:14.309Z,53.60
2018-12-17T08:54:42.541Z,49.33
2018-12-17T08:57:10.680Z,48.68
2018-12-17T08:59:38.870Z,50.78
2018-12-17T09:02:07.056Z,59.60
2018-12-17T09:04:35.236Z,49.40
2018-12-17T09:07:03.432Z,52.75
2018-12-17T09:09:31.620Z,47.00
2018-12-17T09:11:59.801Z,51.02
2018-12-17T09:14:27.992Z,51.00
2018-12-17T09:16:56.085Z,56.37
2018-12-17T09:19:24.260Z,67.72
2018-12-17T09:21:52.368Z,52.73
2018-12-17T09:24:20.540Z,58.38
2018-12-17T09:26:48.724Z,56.75
2018-12-17T09:29:16.921Z,60.38
2018-12-17T09:31:45.119Z,44.77
2018-12-17T09:34:13.276Z,50.90
2018-12-17T09:36:41.464Z,48.17
2018-12-17T09:39:09.660Z,43.85
2018-12-17T09:41:37.836Z,54.27
2018-12-17T09:44:06.025Z,44.20
2018-12-17T09:46:34.588Z,53.05
2018-12-17T09:49:02.783Z,48.92
2018-12-17T09:51:30.891Z,44.00
2018-12-17T09:53:59.104Z,46.98
2018-12-17T09:56:27.260Z,48.87
2018-12-17T09:58:55.429Z,45.75
2018-12-17T10:01:23.630Z,45.38
2018-12-17T10:03:51.844Z,42.98
2018-12-17T10:06:20.016Z,39.98
2018-12-17T10:08:48.205Z,43.58
2018-12-17T10:11:16.532Z,40.92
2018-12-17T10:13:44.689Z,35.92
2018-12-17T10:16:12.863Z,37.35
2018-12-17T10:18:41.062Z,38.35
2018-12-17T10:21:09.461Z,36.08
2018-12-17T10:23:37.904Z,32.75
2018-12-17T10:26:06.101Z,32.80
2018-12-17T10:28:34.220Z,33.05
2018-12-17T10:31:02.403Z,34.92
2018-12-17T10:33:30.596Z,34.23
2018-12-17T10:35:58.768Z,35.68
2018-12-17T10:38:26.954Z,30.15
2018-12-17T10:40:55.152Z,35.90
2018-12-17T10:43:23.432Z,35.63
2018-12-17T10:45:51.792Z,34.78
2018-12-17T10:48:20.006Z,35.90
2018-12-17T10:50:48.208Z,35.70
2018-12-17T10:53:16.589Z,36.42
2018-12-17T10:55:44.781Z,38.83
2018-12-17T10:58:12.960Z,32.38
2018-12-17T11:00:46.739Z,37.70
2018-12-17T11:03:18.619Z,34.48
2018-12-17T11:05:47.059Z,34.43
2018-12-17T11:08:15.229Z,31.97
2018-12-17T11:10:43.428Z,34.55
2018-12-17T11:13:11.682Z,30.92
2018-12-17T11:15:39.905Z,28.27
2018-12-17T11:18:08.067Z,29.10
2018-12-17T11:20:36.176Z,28.17
2018-12-17T11:23:04.349Z,30.32
2018-12-17T11:25:32.549Z,30.27
2018-12-17T11:28:00.732Z,31.25
2018-12-17T11:30:28.932Z,26.45
2018-12-17T11:32:57.104Z,25.72
2018-12-17T11:35:25.296Z,23.15
2018-12-17T11:37:53.476Z,27.62
2018-12-17T11:40:21.677Z,33.58
2018-12-17T11:42:49.851Z,25.62
2018-12-17T11:45:18.861Z,24.57
2018-12-17T11:47:47.047Z,24.70
2018-12-17T11:50:15.224Z,29.07
2018-12-17T11:52:43.338Z,25.35
2018-12-17T11:55:11.497Z,27.15
2018-12-17T11:58:03.991Z,29.45
2018-12-17T12:00:32.228Z,28.27
2018-12-17T12:03:00.344Z,30.20
2018-12-17T12:05:28.518Z,34.30
2018-12-17T12:07:56.612Z,29.65
2018-12-17T12:10:24.795Z,27.95
2018-12-17T12:12:52.997Z,31.10
2018-12-17T12:15:21.165Z,29.07
2018-12-17T12:17:49.274Z,34.58
2018-12-17T12:20:17.359Z,31.05
2018-12-17T12:22:45.528Z,32.58
2018-12-17T12:25:13.711Z,31.60
2018-12-17T12:27:41.912Z,34.40
2018-12-17T12:30:10.993Z,33.18
2018-12-17T12:32:39.104Z,31.23
2018-12-17T12:35:08.420Z,31.82
2018-12-17T12:37:36.603Z,31.97
2018-12-17T12:40:05.038Z,34.67
2018-12-17T12:42:33.171Z,32.90
2018-12-17T12:45:01.343Z,33.33
2018-12-17T12:47:29.464Z,31.70
2018-12-17T12:49:57.620Z,33.95
2018-12-17T12:52:25.865Z,30.10
2018-12-17T12:54:54.003Z,31.65
2018-12-17T12:57:22.201Z,32.38
2018-12-17T12:59:50.379Z,36.48
2018-12-17T13:02:18.567Z,33.28
2018-12-17T13:04:46.771Z,35.92
2018-12-17T13:07:14.936Z,40.45
2018-12-17T13:09:43.120Z,37.88
2018-12-17T13:12:11.320Z,33.63
2018-12-17T13:14:39.489Z,36.93
2018-12-17T13:17:13.181Z,39.92
2018-12-17T13:19:41.320Z,41.00
2018-12-17T13:22:09.525Z,40.05
2018-12-17T13:24:37.776Z,39.48
2018-12-17T13:27:05.965Z,40.08
2018-12-17T13:29:34.180Z,35.52
2018-12-17T13:32:02.336Z,46.05
2018-12-17T13:34:30.538Z,39.83
2018-12-17T13:36:58.699Z,41.90
2018-12-17T13:39:26.793Z,43.80
2018-12-17T13:41:54.980Z,36.83
2018-12-17T13:44:23.231Z,41.37
2018-12-17T13:46:51.364Z,38.33
2018-12-17T13:49:19.589Z,40.98
2018-12-17T13:51:52.992Z,36.05
2018-12-17T13:54:21.144Z,36.28
2018-12-17T13:56:49.321Z,41.65
2018-12-17T13:59:17.521Z,34.40
2018-12-17T14:01:51.390Z,36.30
2018-12-17T14:04:15.841Z,36.03
2018-12-17T14:06:44.012Z,36.50
2018-12-17T14:09:12.212Z,36.73
2018-12-17T14:11:40.392Z,37.63
2018-12-17T14:14:08.588Z,34.40
2018-12-17T14:16:42.092Z,36.58
2018-12-17T14:19:15.596Z,27.50
2018-12-17T14:21:49.282Z,29.98
2018-12-17T14:24:17.418Z,36.25
2018-12-17T14:26:45.636Z,29.15
2018-12-17T14:29:13.785Z,36.45
2018-12-17T14:31:41.964Z,33.85
2018-12-17T14:34:10.172Z,32.10
2018-12-17T14:36:38.343Z,28.15
2018-12-17T14:39:07.740Z,33.35
2018-12-17T14:41:35.852Z,29.72
2018-12-17T14:44:09.920Z,27.90
2018-12-17T14:46:43.900Z,32.50
2018-12-17T14:49:12.088Z,25.80
2018-12-17T14:51:40.260Z,29.50
2018-12-17T14:54:08.457Z,31.15
2018-12-17T14:56:36.693Z,25.65
2018-12-17T14:59:04.936Z,30.55
2018-12-17T15:01:36.008Z,27.00
2018-12-17T15:04:03.272Z,28.07
2018-12-17T15:06:31.430Z,31.35
2018-12-17T15:08:59.616Z,31.20
2018-12-17T15:11:27.704Z,28.15
2018-12-17T15:13:55.895Z,27.07
2018-12-17T15:16:24.088Z,30.48
2018-12-17T15:18:52.168Z,29.25
2018-12-17T15:21:20.360Z,30.25
2018-12-17T15:23:48.468Z,29.18
2018-12-17T15:26:16.751Z,29.20
2018-12-17T15:28:44.925Z,28.75
2018-12-17T15:31:13.128Z,29.15
2018-12-17T15:33:41.285Z,24.98
2018-12-17T15:36:09.475Z,21.50
2018-12-17T15:38:37.657Z,26.05
2018-12-17T15:41:05.881Z,23.27
2018-12-17T15:43:34.035Z,21.73
2018-12-17T15:46:02.233Z,23.87
2018-12-17T15:48:30.407Z,21.12
2018-12-17T15:50:58.628Z,24.80
2018-12-17T15:53:26.780Z,30.52
2018-12-17T15:55:54.981Z,19.52
2018-12-17T15:58:23.149Z,21.80
2018-12-17T16:00:51.340Z,18.70
2018-12-17T16:03:19.528Z,21.25
2018-12-17T16:05:47.616Z,24.72
2018-12-17T16:08:15.792Z,22.80
2018-12-17T16:10:44.917Z,24.72
2018-12-17T16:13:13.020Z,23.85
2018-12-17T16:15:41.197Z,28.60
2018-12-17T16:18:09.400Z,22.70
2018-12-17T16:20:37.608Z,26.15
2018-12-17T16:23:05.759Z,27.60
2018-12-17T16:25:33.959Z,25.52
2018-12-17T16:28:02.228Z,23.65
2018-12-17T16:30:30.399Z,20.02
2018-12-17T16:32:58.595Z,20.10
2018-12-17T16:35:26.780Z,22.50
2018-12-17T16:37:54.972Z,22.00
2018-12-17T16:40:23.223Z,23.00
2018-12-17T16:42:51.460Z,19.75
2018-12-17T16:45:19.709Z,21.33
2018-12-17T16:47:47.828Z,22.67
2018-12-17T16:50:16.004Z,18.50
2018-12-17T16:52:44.196Z,22.25
2018-12-17T16:55:12.768Z,21.20
2018-12-17T16:57:40.868Z,21.70
2018-12-17T17:00:09.713Z,19.32
2018-12-17T17:02:38.042Z,19.55
2018-12-17T17:05:06.144Z,20.90
2018-12-17T17:07:34.336Z,20.95
2018-12-17T17:10:06.727Z,17.50
2018-12-17T17:12:34.976Z,27.95
2018-12-17T17:15:03.239Z,21.85
2018-12-17T17:17:31.395Z,23.77
2018-12-17T17:19:59.503Z,23.52
2018-12-17T17:22:27.652Z,24.20
2018-12-17T17:24:55.740Z,23.40
2018-12-17T17:27:23.920Z,26.73
2018-12-17T17:29:52.121Z,20.85
2018-12-17T17:32:20.327Z,25.23
2018-12-17T17:34:48.484Z,26.48
2018-12-17T17:37:16.776Z,26.93
2018-12-17T17:39:46.439Z,27.55
2018-12-17T17:42:14.901Z,27.98
2018-12-17T17:44:43.093Z,29.25
2018-12-17T17:47:11.284Z,24.15
2018-12-17T17:49:39.465Z,26.95
2018-12-17T17:52:07.634Z,30.88
2018-12-17T17:54:35.827Z,32.03
2018-12-17T17:57:04.036Z,32.30
2018-12-17T17:59:32.224Z,31.82
2018-12-17T18:02:00.388Z,41.83
2018-12-17T18:04:28.584Z,50.78
2018-12-17T18:06:56.772Z,48.42
2018-12-17T18:09:24.956Z,43.13
2018-12-17T18:11:53.134Z,39.53
2018-12-17T18:14:21.323Z,36.53
2018-12-17T18:16:49.508Z,43.30
2018-12-17T18:19:17.699Z,40.50
2018-12-17T18:21:45.887Z,44.70
2018-12-17T18:24:14.104Z,42.08
2018-12-17T18:26:42.252Z,41.48
2018-12-17T18:29:10.441Z,38.20
2018-12-17T18:31:38.639Z,37.33
2018-12-17T18:34:06.903Z,33.13
2018-12-17T18:36:35.007Z,32.67
2018-12-17T18:39:03.203Z,31.05
2018-12-17T18:41:31.384Z,32.33
2018-12-17T18:43:59.564Z,34.33
2018-12-17T18:46:27.750Z,28.60
2018-12-17T18:48:55.935Z,28.73
2018-12-17T18:51:24.128Z,32.65
2018-12-17T18:53:52.280Z,32.90
2018-12-17T18:56:20.405Z,23.62
2018-12-17T18:58:48.580Z,24.98
2018-12-17T19:01:16.873Z,26.65
2018-12-17T19:03:45.052Z,22.32
2018-12-17T19:06:13.277Z,29.80
2018-12-17T19:08:41.428Z,32.38
2018-12-17T19:11:09.527Z,27.10
2018-12-17T19:13:37.695Z,27.65
2018-12-17T19:16:06.003Z,27.58
2018-12-17T19:18:34.180Z,30.23
2018-12-17T19:21:02.368Z,27.20
2018-12-17T19:23:30.553Z,28.87
2018-12-17T19:25:58.808Z,28.52
2018-12-17T19:28:26.929Z,26.17
2018-12-17T19:30:55.108Z,32.73
2018-12-17T19:33:23.304Z,27.62
2018-12-17T19:35:51.487Z,24.67
2018-12-17T19:38:19.684Z,24.20
2018-12-17T19:40:47.868Z,24.10
2018-12-17T19:43:16.053Z,29.85
2018-12-17T19:45:44.233Z,24.07
2018-12-17T19:48:12.427Z,20.43
2018-12-17T19:50:40.611Z,27.20
2018-12-17T19:53:08.849Z,21.20
2018-12-17T19:55:36.985Z,30.45
2018-12-17T19:58:05.179Z,23.07
2018-12-17T20:00:33.356Z,29.42
2018-12-17T20:03:01.823Z,28.77
2018-12-17T20:05:29.943Z,38.13
2018-12-17T20:07:58.139Z,26.62
2018-12-17T20:10:26.942Z,26.12
2018-12-17T20:12:55.248Z,25.85
2018-12-17T20:15:23.408Z,25.10
2018-12-17T20:17:51.595Z,22.55
2018-12-17T20:20:19.695Z,21.48
2018-12-17T20:22:47.880Z,24.75
2018-12-17T20:25:16.033Z,22.27
2018-12-17T20:27:44.163Z,22.45
2018-12-17T20:30:12.909Z,25.50
2018-12-17T20:32:41.027Z,30.08
2018-12-17T20:35:09.296Z,22.45
2018-12-17T20:37:37.416Z,27.82
2018-12-17T20:40:06.988Z,23.65
2018-12-17T20:42:35.272Z,24.10
2018-12-17T20:45:03.581Z,22.58
2018-12-17T20:47:31.676Z,24.35
2018-12-17T20:50:00.033Z,23.38
2018-12-17T20:52:28.160Z,22.00
2018-12-17T20:54:56.343Z,20.70
2018-12-17T20:57:24.525Z,22.30
2018-12-17T20:59:52.735Z,24.60
2018-12-17T21:02:20.896Z,24.15
2018-12-17T21:04:49.098Z,25.52
2018-12-17T21:07:17.276Z,25.12
2018-12-17T21:09:45.461Z,20.97
2018-12-17T21:12:13.644Z,19.67
2018-12-17T21:14:41.842Z,19.82
2018-12-17T21:17:10.016Z,18.65
2018-12-17T21:19:38.220Z,19.15
2018-12-17T21:22:09.766Z,18.20
2018-12-17T21:24:37.882Z,20.82
2018-12-17T21:27:06.044Z,20.17
2018-12-17T21:29:34.235Z,19.37
2018-12-17T21:32:02.440Z,24.43
2018-12-17T21:34:30.618Z,24.40
2018-12-17T21:36:58.790Z,22.55
2018-12-17T21:39:26.999Z,17.27
2018-12-17T21:41:55.167Z,17.10
2018-12-17T21:44:23.369Z,17.10
2018-12-17T21:46:52.849Z,20.57
2018-12-17T21:49:21.381Z,16.32
2018-12-17T21:51:49.556Z,20.05
2018-12-17T21:54:17.761Z,15.28
2018-12-17T21:56:45.936Z,15.10
2018-12-17T21:59:14.129Z,16.67
2018-12-17T22:01:42.308Z,17.40
2018-12-17T22:04:10.503Z,18.80
2018-12-17T22:06:38.683Z,18.60
2018-12-17T22:09:07.531Z,19.98
2018-12-17T22:11:36.059Z,21.02
2018-12-17T22:14:04.156Z,22.27
2018-12-17T22:16:32.355Z,25.77
2018-12-17T22:19:00.528Z,21.00
2018-12-17T22:21:28.624Z,22.73
2018-12-17T22:23:56.805Z,24.45
2018-12-17T22:26:29.226Z,25.82
2018-12-17T22:28:55.121Z,24.45
2018-12-17T22:31:23.327Z,25.97
2018-12-17T22:33:51.496Z,27.87
2018-12-17T22:36:19.694Z,29.67
2018-12-17T22:38:47.876Z,29.92
2018-12-17T22:41:16.061Z,27.32
2018-12-17T22:43:44.241Z,27.07
2018-12-17T22:46:12.561Z,25.17
2018-12-17T22:48:40.723Z,23.98
2018-12-17T22:51:08.920Z,30.10
2018-12-17T22:53:37.140Z,32.50
2018-12-17T22:56:05.334Z,27.62
2018-12-17T22:58:33.565Z,33.50
2018-12-17T23:01:01.794Z,30.35
2018-12-17T23:03:30.040Z,26.75
2018-12-17T23:05:58.233Z,29.27
2018-12-17T23:08:26.424Z,28.55
2018-12-17T23:11:06.208Z,34.35
2018-12-17T23:13:45.824Z,30.30
2018-12-17T23:16:25.512Z,26.55
2018-12-17T23:18:52.754Z,26.17
2018-12-17T23:21:20.838Z,29.77
2018-12-17T23:23:49.038Z,29.75
2018-12-17T23:26:17.211Z,29.63
2018-12-17T23:28:45.405Z,28.02
2018-12-17T23:31:13.585Z,31.27
2018-12-17T23:33:41.785Z,31.10
2018-12-17T23:36:09.960Z,29.00
2018-12-17T23:38:38.159Z,27.37
2018-12-17T23:41:06.334Z,27.15
2018-12-17T23:43:34.524Z,29.00
2018-12-17T23:46:02.807Z,36.10
2018-12-17T23:48:31.005Z,31.15
2018-12-17T23:50:59.180Z,28.55
2018-12-17T23:53:27.376Z,32.20
2018-12-17T23:55:55.564Z,25.12
2018-12-17T23:58:23.744Z,28.75
